Felipe Simoes

Recruteur - Alverca
4 Juin 2028
Dimanche
Processus

Personnalité

Adaptabilité (17) Ambition (19) Controverse (19) Loyauté (4) Pression (2) Professionnalisme (1) Sportivité (10) Tempérament (13)

Profil

Style d'entraînement Démocratique
Diplôme Continental C
Détermination 10
Gestion des joueurs 10
Motivation 11
Discipline 5
Satisfaction professionnelle
100%
Fatigue
0%
Rôle Recruteur
Salaire 37.4K p/s
Contrat 14.03.2029

Performance

Comportement Bon
Efficacité de l'entraînement
44%
Développement des joueurs
45%
Prévention des blessures
55%
Mise en place tactique
55%

Événements récents

A participé à une réunion de recrutement maintenant
A participé à une réunion de recrutement maintenant
A participé à une réunion de recrutement maintenant
A recommandé une cible de transfert maintenant
A participé à une réunion de recrutement 7j
A recommandé une cible de transfert 7j
A recommandé une cible de transfert 7j
A recommandé une cible de transfert 7j

Suivi en cours

109
Joueur Club Statut Capacité Confiance Observé Dernière observation Dernier vote
Juanda Fuentes Penafiel Actif 116 / 112 76% 1 06.01.2028 Approuver
Mao Hosoya Santos Actif 134 / 135 67% 1 01.01.2028 -
Reko Leiria Actif 114 / 108 72% 1 14.06.2027 Approuver
Sampson Dweh Mallorca Actif 133 / 134 66% 1 01.06.2027 Approuver
Johannes Eggestein Orlando City Actif 125 / 125 68% 1 01.06.2027 -
Santi García Gil Vicente Actif 140 / 145 40% 4 30.05.2027 -
Derensili Sanches Fernandes Huddersfield Town Actif 127 / 128 40% 2 30.05.2027 -
Tyrese Campbell Sheffield United Actif 133 / 127 40% 2 27.05.2027 -
Isaiah Jones Luton Town Actif 127 / 114 40% 7 27.05.2027 -
Tomáš Rigo Stoke City Actif 126 / 128 40% 2 25.05.2027 -
Bobby Clark Derby County Actif 122 / 135 40% 1 25.05.2027 -
Scott Twine Bristol City Actif 122 / 125 40% 3 24.05.2027 -
Kwadwo Baah Watford Actif 124 / 127 40% 3 22.05.2027 -
Max Johnston Derby County Actif 135 / 125 40% 1 22.05.2027 -
Mohamed Belloumi Hull City Actif 138 / 125 40% 1 22.05.2027 -
Ole Pohlmann Rio Ave Actif 129 / 136 40% 3 20.05.2027 -
Ilyas Ansah Hull City Actif 136 / 124 40% 2 20.05.2027 -
Louie Barry Sheffield Wednesday Actif 116 / 121 40% 2 18.05.2027 -
Ethan Galbraith Swansea City Actif 137 / 129 40% 1 18.05.2027 -
Juan Bezerra Zamalek Actif 119 / 99 40% 2 16.05.2027 -
Alex Robertson Cardiff City Actif 122 / 129 40% 3 16.05.2027 -
Othmane Maamma Watford Actif 125 / 132 40% 1 16.05.2027 -
Jackson Muleka Konyaspor Actif 133 / 133 40% 1 15.05.2027 -
Tyler Goodrham Oxford United Actif 122 / 112 40% 1 15.05.2027 -
Harry Clarke Preston Actif 126 / 134 40% 2 14.05.2027 -
Daniel Kyerewaa Reading Actif 120 / 107 40% 2 13.05.2027 -
Sam Greenwood Bristol City Actif 117 / 114 40% 1 13.05.2027 -
Chemsdine Talbi Sunderland Actif 143 / 156 40% 1 13.05.2027 -
Giacomo Raspadori Atalanta Actif 142 / 145 40% 2 12.05.2027 -
Finn Azaz Southampton Actif 131 / 124 40% 4 12.05.2027 -
Mohamed-Ali Cho Hull City Actif 129 / 137 40% 5 11.05.2027 -
Samuel Edozie Southampton Actif 133 / 130 40% 2 10.05.2027 -
Tahith Chong Sheffield United Actif 119 / 129 40% 2 10.05.2027 -
Joe Gelhardt Hull City Actif 135 / 131 40% 1 09.05.2027 -
Toby Collyer West Bromwich Albion Actif 131 / 145 40% 1 09.05.2027 -
Bosun Lawal Stoke City Actif 135 / 119 40% 1 08.05.2027 -
Lee Hyun-Ju Arouca Actif 127 / 128 40% 1 08.05.2027 -
Martín Tejón Maritimo Actif 111 / 113 40% 1 06.05.2027 -
Savinho Tottenham Actif 161 / 147 40% 1 04.05.2027 -
Welington Southampton Actif 131 / 117 40% 1 03.05.2027 -
Malick Fofana Sunderland Actif 137 / 147 40% 2 01.05.2027 -
Rafik Guitane Estoril Praia Actif 141 / 134 40% 2 29.04.2027 -
Adam Randell Bristol City Actif 125 / 137 40% 1 26.04.2027 -
Sorriso Famalicao Actif 138 / 126 40% 5 24.04.2027 -
Oswin Appollis Orlando Pirates Actif 134 / 124 40% 2 24.04.2027 -
Brooke Norton-Cuffy Hull City Actif 130 / 137 40% 2 22.04.2027 -
Gianluca Prestianni Benfica Actif 134 / 148 40% 1 22.04.2027 -
Juanlu Bournemouth Actif 150 / 140 40% 2 19.04.2027 -
Tyreece Campbell Charlton Athletic Actif 121 / 124 40% 1 19.04.2027 -
Manu Pozo Torreense Actif 127 / 108 40% 2 15.04.2027 -
Luciano Juba Bahia Actif 134 / 118 40% 2 13.04.2027 -
Florentino Luís Ipswich Town Actif 149 / 145 40% 2 12.04.2027 -
Ali Ahmed Norwich City Actif 127 / 123 40% 1 12.04.2027 -
Edoardo Bove Watford Actif 125 / 140 40% 1 09.04.2027 -
Jordan Holsgrove Estoril Praia Actif 125 / 132 40% 1 07.04.2027 -
Yanis Begraoui Estoril Praia Actif 138 / 122 40% 2 06.04.2027 -
Luis Quintero Torreense Actif 135 / 130 40% 1 05.04.2027 -
Gustavo Silva Vitoria Guimaraes Actif 124 / 116 40% 1 03.04.2027 -
Alex Scott Bournemouth Actif 146 / 162 40% 1 02.04.2027 -
Erick Pulga Bahia Actif 145 / 133 40% 1 01.04.2027 -
Mikey Johnston West Bromwich Albion Actif 122 / 127 40% 1 31.03.2027 -
Simo Maritimo Actif 111 / 110 40% 1 30.03.2027 -
Bongani Zungu Ajax Cape Town Actif 130 / 138 40% 1 28.03.2027 -
Gonzalo Fulham Actif 149 / 141 40% 2 21.03.2027 -
Enzo Le Fée Sunderland Actif 133 / 143 40% 1 19.03.2027 -
Andre Brooks Sheffield United Actif 133 / 139 40% 1 17.03.2027 -
Valery Académico de Viseu Actif 116 / 113 40% 1 17.03.2027 -
Lazar Carević Famalicao Actif 134 / 143 40% 5 31.12.2026 -
Andreas Jungdal Westerlo Actif 127 / 123 40% 1 31.12.2026 -
Manuel Roffo Hajduk Split Actif 122 / 115 40% 3 30.12.2026 -
João Gonçalves Oliveirense Actif 118 / 128 40% 2 30.12.2026 -
Lucas Cañizares Tondela Actif 102 / 96 40% 2 30.12.2026 -
Gonçalo Tabuaço Maritimo Actif 112 / 108 40% 2 29.12.2026 -
Michael Cooper Sheffield United Actif 122 / 139 40% 2 27.12.2026 -
Patrick Sequeira Casa Pia Actif 129 / 130 40% 1 27.12.2026 -
Robin Roefs Sunderland Actif 149 / 148 40% 3 22.12.2026 Observer
Fran Vieites Walsall Actif 121 / 124 40% 1 22.12.2026 -
Filip Marschall Stevenage Actif 110 / 102 40% 1 21.12.2026 -
Grégoire Coudert Burnley Actif 124 / 122 40% 2 18.12.2026 -
Zach Hemming Chesterfield Actif 108 / 109 40% 3 18.12.2026 -
Nicolás Sumavil Platense Actif 113 / 138 40% 1 14.12.2026 -
Juan Diego Castillo Vitoria Guimaraes Actif 111 / 111 40% 2 13.12.2026 -
Justin Hammel Grasshopper Actif 129 / 126 40% 1 13.12.2026 -
Francisco Meixedo Feirense Actif 120 / 117 40% 4 12.12.2026 -
Myles Roberts Cambridge United Actif 100 / 113 40% 1 11.12.2026 -
Jordan Amissah Burton Albion Actif 101 / 103 40% 2 09.12.2026 -
Lukas Jensen Millwall Actif 118 / 103 40% 1 09.12.2026 -
George Wickens Lincoln City Actif 119 / 103 40% 2 08.12.2026 -
Radek Vítek Middlesbrough Actif 128 / 145 40% 2 08.12.2026 Plus d'infos
Anthony Patterson Wrexham Actif 129 / 132 40% 3 08.12.2026 -
Matevž Vidovšek Olimpija Ljubljana Actif 123 / 136 40% 1 01.12.2026 -
Lukas Gütlbauer Wolfsberger AC Actif 114 / 125 40% 1 26.11.2026 -
Raúl Rangel Braga Actif 129 / 122 40% 1 25.11.2026 -
Roman Celentano FC Cincinnati Actif 123 / 137 40% 1 24.11.2026 -
Josh Keeley Luton Town Actif 125 / 116 40% 1 16.11.2026 -
Kévin Denkey FC Cincinnati Actif 136 / 118 40% 2 15.11.2026 -
Nicolò Tresoldi Club Brugge Actif 131 / 129 40% 1 15.11.2026 -
Rodrigo Muniz Fulham Actif 145 / 130 40% 1 15.11.2026 -
Caleb Yirenkyi Coventry City Actif 134 / 140 40% 1 12.11.2026 -
Wilson Odobert Brighton Actif 145 / 132 40% 1 12.11.2026 -
Alfonso Trezza Arouca Actif 121 / 126 40% 1 12.11.2026 -
Zé Leite Moreirense Actif 118 / 127 40% 1 12.11.2026 -
Josh Coburn Millwall Actif 118 / 119 40% 1 07.11.2026 -
Rafael Navarro Famalicao Actif 122 / 128 40% 1 05.11.2026 -
Talles Magno New York City Actif 130 / 127 40% 1 05.11.2026 -
Giorgi Mamardashvili Liverpool Actif 160 / 168 40% 1 03.11.2026 -
Noni Madueke Arsenal Actif 160 / 158 40% 1 09.10.2026 -
Carlos Vicente Birmingham Actif 148 / 143 40% 1 08.10.2026 -
Facundo Mura Inter Miami CF Actif 123 / 119 40% 1 08.10.2026 -